Time;durP1;ratioP1;P1;durP2;ratioP2;P2;SDS_P1;SDS_P2;PMS_P1;PMS_P2;Temp;Humidity;BMP_temperature;BMP_pressure;BME280_temperature;BME280_humidity;BME280_pressure;Samples;Min_cycle;Max_cycle;Signal;HPM_P1;HPM_P2
2024/03/22 00:01:14;;;;;;;;;;;;;;;25.04;33.98;102020.03;4100501;29;20301;-58
2024/03/22 00:03:15;;;;;;;;;;;;;;;25.06;33.58;102020.78;4099972;29;19923;-58
2024/03/22 00:05:16;;;;;;;;;;;;;;;25.06;33.88;102019.94;4100378;28;19929;-58
2024/03/22 00:07:17;;;;;;;;;;;;;;;25.06;33.57;102022.63;4100115;29;19922;-59
2024/03/22 00:09:18;;;;;;;;;;;;;;;25.07;33.58;102021.63;4084624;29;19933;-58
2024/03/22 00:11:19;;;;;;;;;;;;;;;25.07;33.81;102016.25;4100437;29;19922;-58
2024/03/22 00:13:20;;;;;;;;;;;;;;;25.04;33.64;102014.66;4100054;29;19926;-59
2024/03/22 00:15:22;;;;;;;;;;;;;;;25.03;33.69;102019.19;4100354;29;19922;-58
2024/03/22 00:17:23;;;;;;;;;;;;;;;25.03;33.73;102016.50;4099820;29;19977;-58
2024/03/22 00:19:24;;;;;;;;;;;;;;;25.02;33.55;102020.16;4100133;29;20337;-59
2024/03/22 00:21:25;;;;;;;;;;;;;;;25.01;33.87;102010.38;4100002;29;19922;-58
2024/03/22 00:23:26;;;;;;;;;;;;;;;25.01;33.68;102018.44;4100168;29;19926;-58
2024/03/22 00:25:27;;;;;;;;;;;;;;;25.02;34.00;102016.63;4100048;29;19933;-58
2024/03/22 00:27:28;;;;;;;;;;;;;;;25.01;33.74;102010.38;4084339;29;19927;-58
2024/03/22 00:29:29;;;;;;;;;;;;;;;25.02;33.67;102016.63;4115893;28;19928;-58
2024/03/22 00:31:31;;;;;;;;;;;;;;;25.02;33.96;102005.88;4099708;29;19928;-58
2024/03/22 00:33:32;;;;;;;;;;;;;;;25.01;33.86;102002.28;4099899;29;19922;-59
2024/03/22 00:35:33;;;;;;;;;;;;;;;25.02;34.06;101997.78;4099877;29;19922;-58
2024/03/22 00:37:34;;;;;;;;;;;;;;;25.01;33.63;101999.59;4099883;29;19928;-58
2024/03/22 00:39:35;;;;;;;;;;;;;;;25.03;33.64;101986.03;4099932;29;19922;-57
2024/03/22 00:41:36;;;;;;;;;;;;;;;25.02;33.56;101987.03;4099777;29;20387;-58
2024/03/22 00:43:37;;;;;;;;;;;;;;;24.99;33.66;101980.00;4099535;29;19923;-57
2024/03/22 00:45:38;;;;;;;;;;;;;;;24.99;33.74;101969.25;4099397;29;20411;-58
2024/03/22 00:47:39;;;;;;;;;;;;;;;24.99;33.67;101971.94;4099551;29;19922;-58
2024/03/22 00:49:40;;;;;;;;;;;;;;;24.97;34.08;101971.22;4099730;29;19969;-58
2024/03/22 00:51:44;;;;;;;;;;;;;;;24.98;33.70;101972.94;4099437;29;20597;-59
2024/03/22 00:53:45;;;;;;;;;;;;;;;24.98;33.84;101970.25;4099716;29;19922;-58
2024/03/22 00:55:50;;;;;;;;;;;;;;;24.97;33.85;101975.72;4099917;29;20453;-58
2024/03/22 00:57:51;;;;;;;;;;;;;;;24.97;33.72;101973.91;4099886;29;19932;-58
2024/03/22 00:59:52;;;;;;;;;;;;;;;24.98;33.71;101970.25;4099322;29;19923;-58
2024/03/22 01:01:53;;;;;;;;;;;;;;;24.96;33.82;101972.19;4099388;29;19927;-59
2024/03/22 01:03:55;;;;;;;;;;;;;;;24.97;33.91;101971.22;4084081;29;19929;-58
2024/03/22 01:05:57;;;;;;;;;;;;;;;24.97;34.09;101965.84;4100051;29;19929;-58
2024/03/22 01:07:58;;;;;;;;;;;;;;;24.97;33.82;101973.03;4099851;29;19926;-58
2024/03/22 01:09:59;;;;;;;;;;;;;;;24.97;33.83;101971.22;4083875;29;19949;-58
2024/03/22 01:12:00;;;;;;;;;;;;;;;24.98;33.79;101959.47;4099481;29;19968;-58
2024/03/22 01:14:01;;;;;;;;;;;;;;;24.99;33.72;101961.16;4099219;29;19922;-60
2024/03/22 01:16:02;;;;;;;;;;;;;;;24.97;33.76;101960.47;4099414;29;19928;-58
2024/03/22 01:18:04;;;;;;;;;;;;;;;24.96;33.86;101955.16;4099069;28;20374;-58
2024/03/22 01:20:05;;;;;;;;;;;;;;;24.94;33.90;101943.69;4099564;29;19923;-58
2024/03/22 01:22:06;;;;;;;;;;;;;;;24.96;34.15;101952.47;4099574;29;19930;-59
2024/03/22 01:24:07;;;;;;;;;;;;;;;24.93;34.13;101953.56;4099175;29;20325;-58
2024/03/22 01:26:09;;;;;;;;;;;;;;;24.92;33.84;101957.25;4099426;29;19922;-58
2024/03/22 01:28:10;;;;;;;;;;;;;;;24.92;33.87;101959.94;4083151;29;19934;-58
2024/03/22 01:30:11;;;;;;;;;;;;;;;24.93;33.89;101952.72;4098788;29;19922;-58
2024/03/22 01:32:13;;;;;;;;;;;;;;;24.93;33.84;101948.19;4099094;29;19928;-58
2024/03/22 01:34:14;;;;;;;;;;;;;;;24.94;33.97;101949.91;4098824;29;19926;-58
2024/03/22 01:36:15;;;;;;;;;;;;;;;24.95;34.08;101937.34;4098988;29;19923;-58
2024/03/22 01:38:16;;;;;;;;;;;;;;;24.93;33.75;101942.81;4098969;29;19929;-59
2024/03/22 01:40:18;;;;;;;;;;;;;;;24.95;33.97;101937.34;4098943;29;19929;-59
2024/03/22 01:42:19;;;;;;;;;;;;;;;24.96;33.76;101936.34;4098848;29;19933;-58
2024/03/22 01:44:26;;;;;;;;;;;;;;;24.95;33.88;101935.50;4098494;29;20387;-58
2024/03/22 01:46:28;;;;;;;;;;;;;;;24.93;33.84;101933.91;4098749;29;19936;-58
2024/03/22 01:48:29;;;;;;;;;;;;;;;24.91;33.91;101927.75;4098930;29;20333;-59
2024/03/22 01:50:30;;;;;;;;;;;;;;;24.91;34.09;101927.75;4098688;29;19922;-59
2024/03/22 01:52:31;;;;;;;;;;;;;;;24.90;33.87;101932.31;4098922;29;19929;-58
2024/03/22 01:54:32;;;;;;;;;;;;;;;24.90;33.86;101934.13;4098769;29;19923;-58
2024/03/22 01:56:35;;;;;;;;;;;;;;;24.88;34.01;101927.03;4098593;29;19922;-59
2024/03/22 01:58:36;;;;;;;;;;;;;;;24.87;34.03;101929.84;4098317;29;19941;-59
2024/03/22 02:00:38;;;;;;;;;;;;;;;24.87;33.98;101933.41;4098523;29;19922;-58
2024/03/22 02:02:39;;;;;;;;;;;;;;;24.88;33.86;101931.56;4098617;29;19930;-59
2024/03/22 02:04:40;;;;;;;;;;;;;;;24.88;33.94;101931.56;4098556;29;19922;-58
2024/03/22 02:06:41;;;;;;;;;;;;;;;24.90;34.08;101928.72;4098577;29;19922;-58
2024/03/22 02:08:44;;;;;;;;;;;;;;;24.87;33.93;101921.75;4098766;29;19944;-58
2024/03/22 02:10:45;;;;;;;;;;;;;;;24.89;33.99;101925.19;4098557;29;19923;-58
2024/03/22 02:12:46;;;;;;;;;;;;;;;24.91;33.84;101922.38;4098313;29;19926;-58
2024/03/22 02:14:47;;;;;;;;;;;;;;;24.90;33.85;101916.16;4098257;29;19929;-58
2024/03/22 02:16:48;;;;;;;;;;;;;;;24.89;33.98;101911.75;4098441;29;19926;-58
2024/03/22 02:18:50;;;;;;;;;;;;;;;24.89;34.00;101914.44;4098660;29;19930;-58
2024/03/22 02:20:51;;;;;;;;;;;;;;;24.86;33.85;101912.84;4098428;29;19922;-58
2024/03/22 02:22:52;;;;;;;;;;;;;;;24.85;34.00;101912.97;4098244;29;19926;-57
2024/03/22 02:24:53;;;;;;;;;;;;;;;24.84;33.76;101908.56;4098334;29;19929;-58
2024/03/22 02:26:54;;;;;;;;;;;;;;;24.81;34.34;101912.34;4097907;29;19994;-57
2024/03/22 02:28:55;;;;;;;;;;;;;;;24.83;34.27;101904.16;4097555;28;19938;-57
2024/03/22 02:30:56;;;;;;;;;;;;;;;24.83;34.25;101912.22;4098282;29;20482;-58
2024/03/22 02:32:57;;;;;;;;;;;;;;;24.82;33.87;101902.44;4098490;29;19922;-58
2024/03/22 02:34:58;;;;;;;;;;;;;;;24.82;33.99;101900.59;4098519;29;19927;-58
2024/03/22 02:36:59;;;;;;;;;;;;;;;24.84;33.93;101901.34;4098506;29;20336;-58
2024/03/22 02:39:00;;;;;;;;;;;;;;;24.86;34.19;101899.38;4098034;29;19923;-57
2024/03/22 02:41:02;;;;;;;;;;;;;;;24.85;33.84;101902.22;4082077;29;19922;-58
2024/03/22 02:43:03;;;;;;;;;;;;;;;24.85;33.83;101894.97;4098072;29;19922;-57
2024/03/22 02:45:04;;;;;;;;;;;;;;;24.85;33.92;101891.44;4098211;29;19923;-58
2024/03/22 02:47:05;;;;;;;;;;;;;;;24.83;34.05;101880.78;4098197;29;19929;-60
2024/03/22 02:49:06;;;;;;;;;;;;;;;24.82;34.18;101876.38;4082156;29;19922;-60
2024/03/22 02:51:07;;;;;;;;;;;;;;;24.83;34.29;101874.56;4098165;29;19928;-60
2024/03/22 02:53:08;;;;;;;;;;;;;;;24.81;33.89;101879.19;4098130;29;19922;-60
2024/03/22 02:55:10;;;;;;;;;;;;;;;24.78;34.08;101869.53;4097855;29;20441;-60
2024/03/22 02:57:11;;;;;;;;;;;;;;;24.78;34.01;101861.47;4098071;29;19923;-60
2024/03/22 02:59:12;;;;;;;;;;;;;;;24.79;34.33;101870.38;4098027;29;19922;-59
2024/03/22 03:01:13;;;;;;;;;;;;;;;24.80;33.94;101874.78;4098061;29;19923;-60
2024/03/22 03:03:14;;;;;;;;;;;;;;;24.79;34.06;101873.06;4097930;29;20032;-60
2024/03/22 03:05:15;;;;;;;;;;;;;;;24.78;33.88;101863.31;4098120;29;19958;-59
2024/03/22 03:07:16;;;;;;;;;;;;;;;24.77;33.90;101864.28;4098111;29;19926;-59
2024/03/22 03:09:17;;;;;;;;;;;;;;;24.77;34.16;101864.28;4098036;29;19949;-60
2024/03/22 03:11:18;;;;;;;;;;;;;;;24.77;34.15;101864.28;4097448;29;19922;-60
2024/03/22 03:13:19;;;;;;;;;;;;;;;24.78;34.02;101856.06;4098118;29;19981;-59
2024/03/22 03:15:20;;;;;;;;;;;;;;;24.77;34.11;101854.34;4098068;29;20017;-59
2024/03/22 03:17:23;;;;;;;;;;;;;;;24.78;34.29;101850.69;4097976;29;19922;-59
2024/03/22 03:19:24;;;;;;;;;;;;;;;24.78;33.90;101847.16;4097921;29;19933;-59
2024/03/22 03:21:25;;;;;;;;;;;;;;;24.77;33.97;101845.44;4082248;29;19923;-59
2024/03/22 03:23:26;;;;;;;;;;;;;;;24.74;34.29;101838.47;4098080;29;19933;-59
2024/03/22 03:25:27;;;;;;;;;;;;;;;24.73;34.22;101839.44;4097692;29;19929;-59
2024/03/22 03:27:28;;;;;;;;;;;;;;;24.71;34.09;101836.84;4097752;29;19922;-60
2024/03/22 03:29:29;;;;;;;;;;;;;;;24.72;34.40;101835.03;4098064;29;20365;-59
2024/03/22 03:31:30;;;;;;;;;;;;;;;24.73;34.33;101828.69;4097936;29;19926;-60
2024/03/22 03:33:31;;;;;;;;;;;;;;;24.72;34.34;101825.13;4098023;29;19923;-59
2024/03/22 03:35:32;;;;;;;;;;;;;;;24.72;33.98;101826.97;4097919;28;20328;-59
2024/03/22 03:37:33;;;;;;;;;;;;;;;24.72;34.15;101824.28;4097498;29;19928;-60
2024/03/22 03:39:34;;;;;;;;;;;;;;;24.71;34.17;101828.78;4097466;28;19923;-59
2024/03/22 03:41:35;;;;;;;;;;;;;;;24.72;34.18;101821.59;4100570;29;19929;-59
2024/03/22 03:43:36;;;;;;;;;;;;;;;24.74;33.98;101819.63;4100649;29;20329;-60
2024/03/22 03:45:37;;;;;;;;;;;;;;;24.76;34.02;101819.50;4100566;29;19922;-59
2024/03/22 03:47:38;;;;;;;;;;;;;;;24.76;33.91;101822.19;4100420;29;19929;-59
2024/03/22 03:49:39;;;;;;;;;;;;;;;24.74;33.90;101819.63;4084774;29;19927;-59
2024/03/22 03:51:40;;;;;;;;;;;;;;;24.72;34.33;101814.34;4100333;29;19929;-60
2024/03/22 03:53:41;;;;;;;;;;;;;;;24.70;34.31;101819.03;4100341;29;19922;-60
2024/03/22 03:55:42;;;;;;;;;;;;;;;24.69;34.11;101816.44;4100585;29;20297;-60
2024/03/22 03:57:44;;;;;;;;;;;;;;;24.70;34.04;101813.66;4100436;29;19940;-60
2024/03/22 03:59:45;;;;;;;;;;;;;;;24.67;34.07;101803.09;4100446;29;19923;-59
2024/03/22 04:01:46;;;;;;;;;;;;;;;24.67;34.09;101799.56;4100164;29;19923;-60
2024/03/22 04:03:48;;;;;;;;;;;;;;;24.65;34.38;101799.66;4100277;29;19922;-59
2024/03/22 04:05:58;;;;;;;;;;;;;;;24.65;34.20;101799.66;4100263;29;20023;-60
2024/03/22 04:07:59;;;;;;;;;;;;;;;24.65;34.31;101801.50;4100275;29;19926;-59
2024/03/22 04:10:00;;;;;;;;;;;;;;;24.65;34.13;101799.66;4099757;29;19928;-59
2024/03/22 04:12:01;;;;;;;;;;;;;;;24.66;34.18;101800.56;4100195;29;19922;-59
2024/03/22 04:14:03;;;;;;;;;;;;;;;24.67;33.99;101797.72;4100253;29;19922;-60
2024/03/22 04:16:04;;;;;;;;;;;;;;;24.68;34.13;101791.38;4100371;29;19932;-57
2024/03/22 04:18:06;;;;;;;;;;;;;;;24.69;33.92;101795.78;4100035;29;19933;-60
2024/03/22 04:20:08;;;;;;;;;;;;;;;24.68;34.28;101788.69;4100338;29;19927;-60
2024/03/22 04:22:09;;;;;;;;;;;;;;;24.67;34.00;101784.28;4084341;29;19923;-57
2024/03/22 04:24:10;;;;;;;;;;;;;;;24.66;33.95;101790.63;4099853;29;19930;-59
2024/03/22 04:26:12;;;;;;;;;;;;;;;24.64;34.32;101783.63;4100007;29;19929;-60
2024/03/22 04:28:13;;;;;;;;;;;;;;;24.62;34.25;101789.13;4099931;29;19922;-60
2024/03/22 04:30:14;;;;;;;;;;;;;;;24.63;34.00;101788.16;4099885;29;19945;-60
2024/03/22 04:32:15;;;;;;;;;;;;;;;24.63;34.02;101784.59;4100077;29;19922;-60
2024/03/22 04:34:16;;;;;;;;;;;;;;;24.61;34.33;101791.97;4100008;29;19928;-57
2024/03/22 04:36:17;;;;;;;;;;;;;;;24.61;34.11;101791.97;4100020;29;20329;-60
2024/03/22 04:38:18;;;;;;;;;;;;;;;24.60;34.10;101791.09;4099423;29;20382;-58
2024/03/22 04:40:20;;;;;;;;;;;;;;;24.59;34.04;101788.53;4099817;29;20373;-58
2024/03/22 04:42:21;;;;;;;;;;;;;;;24.60;34.09;101782.19;4099869;29;19928;-58
2024/03/22 04:44:22;;;;;;;;;;;;;;;24.60;34.35;101783.03;4099865;29;19955;-58
2024/03/22 04:46:23;;;;;;;;;;;;;;;24.62;33.98;101789.13;4099925;29;19922;-58
2024/03/22 04:48:24;;;;;;;;;;;;;;;24.63;33.97;101782.78;4099583;29;20489;-57
2024/03/22 04:50:25;;;;;;;;;;;;;;;24.63;33.96;101780.09;4099725;29;19945;-58
2024/03/22 04:52:27;;;;;;;;;;;;;;;24.62;34.21;101781.06;4098298;28;20364;-58
2024/03/22 04:54:28;;;;;;;;;;;;;;;24.61;34.08;101783.91;4099669;29;20274;-58
2024/03/22 04:56:29;;;;;;;;;;;;;;;24.59;33.99;101786.69;4099549;29;20574;-58
2024/03/22 04:58:30;;;;;;;;;;;;;;;24.58;34.08;101790.34;4099616;29;19926;-58
2024/03/22 05:00:31;;;;;;;;;;;;;;;24.58;33.94;101784.97;4099639;29;19923;-58
2024/03/22 05:02:32;;;;;;;;;;;;;;;24.57;34.00;101788.66;4099438;29;19922;-58
2024/03/22 05:04:33;;;;;;;;;;;;;;;24.59;34.23;101786.69;4099411;29;19922;-58
2024/03/22 05:06:34;;;;;;;;;;;;;;;24.57;34.04;101783.28;4099189;29;19922;-58
2024/03/22 05:08:36;;;;;;;;;;;;;;;24.54;33.99;101781.66;4099188;29;20381;-58
2024/03/22 05:10:37;;;;;;;;;;;;;;;24.52;34.02;101778.25;4099575;29;19923;-58
2024/03/22 05:12:38;;;;;;;;;;;;;;;24.53;34.16;101774.59;4099417;29;20313;-58
2024/03/22 05:14:39;;;;;;;;;;;;;;;24.54;34.29;101775.44;4099336;29;19922;-58
2024/03/22 05:16:40;;;;;;;;;;;;;;;24.55;34.07;101775.31;4099079;29;19926;-59
2024/03/22 05:18:41;;;;;;;;;;;;;;;24.58;34.32;101776.06;4099165;29;19923;-58
2024/03/22 05:20:42;;;;;;;;;;;;;;;24.58;34.20;101781.44;4098940;29;19922;-58
2024/03/22 05:22:43;;;;;;;;;;;;;;;24.60;34.34;101784.88;4099058;29;20301;-57
2024/03/22 05:24:44;;;;;;;;;;;;;;;24.60;33.85;101776.78;4098957;29;19922;-58
2024/03/22 05:26:45;;;;;;;;;;;;;;;24.58;33.98;101782.28;4099213;29;19922;-58
2024/03/22 05:28:46;;;;;;;;;;;;;;;24.56;34.24;101782.41;4099217;29;19932;-58
2024/03/22 05:30:48;;;;;;;;;;;;;;;24.54;34.30;101776.28;4099161;29;19922;-58
2024/03/22 05:32:50;;;;;;;;;;;;;;;24.52;34.38;101772.00;4099176;29;19922;-58
2024/03/22 05:34:51;;;;;;;;;;;;;;;24.50;34.20;101768.59;4098834;29;20401;-58
2024/03/22 05:36:52;;;;;;;;;;;;;;;24.49;34.22;101772.25;4098626;29;20340;-58
2024/03/22 05:38:53;;;;;;;;;;;;;;;24.48;34.00;101765.16;4098925;29;19965;-58
2024/03/22 05:40:54;;;;;;;;;;;;;;;24.48;34.21;101762.47;4098749;29;20413;-58
2024/03/22 05:42:56;;;;;;;;;;;;;;;24.47;34.26;101760.75;4098914;29;20017;-58
2024/03/22 05:44:57;;;;;;;;;;;;;;;24.49;34.33;101769.56;4098722;29;19922;-58
2024/03/22 05:46:58;;;;;;;;;;;;;;;24.50;34.47;101766.75;4099009;29;19922;-58
2024/03/22 05:48:59;;;;;;;;;;;;;;;24.50;34.02;101758.69;4099067;29;19926;-58
2024/03/22 05:51:00;;;;;;;;;;;;;;;24.53;34.01;101760.28;4098249;29;20439;-58
2024/03/22 05:53:01;;;;;;;;;;;;;;;24.52;34.08;101759.44;4098614;29;19929;-58
2024/03/22 05:55:02;;;;;;;;;;;;;;;24.53;34.22;101761.16;4098632;29;19929;-58
2024/03/22 05:57:05;;;;;;;;;;;;;;;24.53;34.31;101771.03;4098601;29;20393;-58
2024/03/22 05:59:06;;;;;;;;;;;;;;;24.50;34.36;101766.75;4098592;29;19922;-58
2024/03/22 06:01:07;;;;;;;;;;;;;;;24.49;34.07;101770.41;4083052;29;19929;-58
2024/03/22 06:03:08;;;;;;;;;;;;;;;24.48;34.42;101774.06;4098289;28;20397;-58
2024/03/22 06:05:09;;;;;;;;;;;;;;;24.47;34.29;101777.72;4082227;29;19969;-58
2024/03/22 06:07:10;;;;;;;;;;;;;;;24.46;33.98;101778.72;4098691;29;19948;-58
2024/03/22 06:09:13;;;;;;;;;;;;;;;24.47;34.06;101775.03;4098392;29;19928;-58
2024/03/22 06:11:14;;;;;;;;;;;;;;;24.43;34.04;101768.19;4082644;29;19926;-58
2024/03/22 06:13:14;;;;;;;;;;;;;;;24.40;34.17;101777.38;4082674;29;19922;-58
2024/03/22 06:15:15;;;;;;;;;;;;;;;24.40;34.19;101772.00;4098561;29;20017;-58
2024/03/22 06:17:16;;;;;;;;;;;;;;;24.42;34.14;101773.72;4098459;29;19989;-58
2024/03/22 06:19:17;;;;;;;;;;;;;;;24.43;34.17;101778.13;4098284;29;19922;-58
2024/03/22 06:21:24;;;;;;;;;;;;;;;24.44;34.30;101780.69;4066871;29;19988;-58
2024/03/22 06:23:25;;;;;;;;;;;;;;;24.45;34.01;101777.00;4098525;29;19922;-58
2024/03/22 06:25:26;;;;;;;;;;;;;;;24.44;34.11;101771.75;4098239;29;20028;-58
2024/03/22 06:27:27;;;;;;;;;;;;;;;24.45;34.22;101768.06;4098294;29;20420;-58
2024/03/22 06:29:28;;;;;;;;;;;;;;;24.44;34.04;101769.06;4098213;29;19922;-58
2024/03/22 06:31:29;;;;;;;;;;;;;;;24.43;34.18;101770.03;4098209;29;19929;-58
2024/03/22 06:33:30;;;;;;;;;;;;;;;24.43;34.24;101761.97;4082307;29;19978;-58
2024/03/22 06:35:30;;;;;;;;;;;;;;;24.40;34.48;101769.31;4098422;29;19965;-58
2024/03/22 06:37:31;;;;;;;;;;;;;;;24.39;34.47;101767.59;4098485;29;19977;-58
2024/03/22 06:39:32;;;;;;;;;;;;;;;24.39;34.13;101764.91;4098147;29;19922;-58
2024/03/22 06:41:34;;;;;;;;;;;;;;;24.39;34.11;101766.75;4098252;29;19966;-58
2024/03/22 06:43:35;;;;;;;;;;;;;;;24.38;34.29;101767.72;4098085;29;19928;-58
2024/03/22 06:45:36;;;;;;;;;;;;;;;24.37;34.25;101764.16;4098259;29;19922;-58
2024/03/22 06:47:37;;;;;;;;;;;;;;;24.39;34.15;101764.06;4098142;29;19922;-57
2024/03/22 06:49:38;;;;;;;;;;;;;;;24.41;34.22;101759.38;4098351;29;19929;-60
2024/03/22 06:51:38;;;;;;;;;;;;;;;24.43;34.10;101757.44;4098084;29;20374;-58
2024/03/22 06:53:39;;;;;;;;;;;;;;;24.44;34.06;101763.69;4098054;29;19922;-58
2024/03/22 06:55:40;;;;;;;;;;;;;;;24.45;34.17;101757.31;4097917;29;19926;-58
2024/03/22 06:57:41;;;;;;;;;;;;;;;24.45;34.09;101755.50;4098218;29;19926;-58
2024/03/22 06:59:42;;;;;;;;;;;;;;;24.46;34.07;101767.09;4097998;29;20032;-59
2024/03/22 07:01:43;;;;;;;;;;;;;;;24.45;34.20;101765.38;4098058;29;19923;-58
2024/03/22 07:03:45;;;;;;;;;;;;;;;24.43;34.17;101761.97;4097609;29;19929;-58
2024/03/22 07:05:49;;;;;;;;;;;;;;;24.42;34.04;101765.63;4097923;29;20394;-58
2024/03/22 07:07:50;;;;;;;;;;;;;;;24.39;34.21;101754.13;4097868;29;19944;-60
2024/03/22 07:09:51;;;;;;;;;;;;;;;24.40;34.16;101749.63;4097845;29;19926;-60
2024/03/22 07:11:52;;;;;;;;;;;;;;;24.39;34.43;101739.84;4097966;29;19966;-60
2024/03/22 07:13:53;;;;;;;;;;;;;;;24.39;34.17;101748.75;4097938;29;20159;-59
2024/03/22 07:15:53;;;;;;;;;;;;;;;24.39;34.43;101742.53;4084083;29;19961;-60
2024/03/22 07:17:54;;;;;;;;;;;;;;;24.37;34.19;101742.63;4100731;29;19946;-59
2024/03/22 07:19:56;;;;;;;;;;;;;;;24.37;34.55;101745.31;4101059;29;20378;-60
2024/03/22 07:21:59;;;;;;;;;;;;;;;24.39;34.39;101743.38;4100883;29;19922;-60
2024/03/22 07:24:00;;;;;;;;;;;;;;;24.43;34.40;101743.16;4101021;29;20440;-60
2024/03/22 07:26:01;;;;;;;;;;;;;;;24.44;34.19;101748.41;4100969;29;19926;-60
2024/03/22 07:28:01;;;;;;;;;;;;;;;24.44;34.25;101740.34;4100757;29;19922;-60
2024/03/22 07:30:03;;;;;;;;;;;;;;;24.48;34.31;101735.56;4116829;28;20297;-60
2024/03/22 07:32:03;;;;;;;;;;;;;;;24.48;34.07;101741.81;4100590;29;19922;-60
2024/03/22 07:34:04;;;;;;;;;;;;;;;24.49;34.21;101739.97;4100868;29;20291;-60
2024/03/22 07:36:06;;;;;;;;;;;;;;;24.47;34.29;101740.09;4084909;29;19985;-60
2024/03/22 07:38:06;;;;;;;;;;;;;;;24.47;34.17;101733.88;4100891;29;19932;-59
2024/03/22 07:40:07;;;;;;;;;;;;;;;24.46;34.11;101734.84;4100746;29;19922;-60
2024/03/22 07:42:08;;;;;;;;;;;;;;;24.46;34.13;101732.16;4100655;29;19923;-58
2024/03/22 07:44:09;;;;;;;;;;;;;;;24.48;34.42;101724.81;4100921;29;20361;-59
2024/03/22 07:46:11;;;;;;;;;;;;;;;24.49;34.14;101726.53;4100301;29;19926;-60
2024/03/22 07:48:12;;;;;;;;;;;;;;;24.48;34.24;101722.97;4100506;29;19923;-58
2024/03/22 07:50:13;;;;;;;;;;;;;;;24.48;34.37;101724.81;4100630;29;19922;-60
2024/03/22 07:52:13;;;;;;;;;;;;;;;24.47;34.25;101715.03;4100341;29;19922;-60
2024/03/22 07:54:15;;;;;;;;;;;;;;;24.49;34.44;101713.94;4100490;29;19922;-57
2024/03/22 07:56:15;;;;;;;;;;;;;;;24.52;34.33;101711.03;4100293;29;19922;-60
2024/03/22 07:58:16;;;;;;;;;;;;;;;24.55;34.01;101707.22;4100348;29;19923;-60
2024/03/22 08:00:17;;;;;;;;;;;;;;;24.58;34.09;101719.56;4099957;29;19922;-58
2024/03/22 08:02:18;;;;;;;;;;;;;;;24.55;34.18;101713.44;4100450;29;19928;-59
2024/03/22 08:04:19;;;;;;;;;;;;;;;24.59;34.08;101715.91;4100169;29;19985;-59
2024/03/22 08:06:20;;;;;;;;;;;;;;;24.58;34.22;101712.34;4084624;29;20062;-59
2024/03/22 08:08:21;;;;;;;;;;;;;;;24.60;34.40;101712.25;4100344;29;19975;-59
2024/03/22 08:10:23;;;;;;;;;;;;;;;24.59;34.20;101715.91;4100242;29;19923;-59
2024/03/22 08:12:24;;;;;;;;;;;;;;;24.58;33.97;101716.88;4100407;29;19928;-59
2024/03/22 08:14:25;;;;;;;;;;;;;;;24.59;34.18;101711.38;4100264;29;19936;-59
2024/03/22 08:16:25;;;;;;;;;;;;;;;24.60;34.30;101712.25;4099897;29;19922;-59
2024/03/22 08:18:26;;;;;;;;;;;;;;;24.59;34.35;101716.75;4100091;29;19922;-59
2024/03/22 08:20:28;;;;;;;;;;;;;;;24.60;34.38;101720.31;4100077;29;19923;-59
2024/03/22 08:22:28;;;;;;;;;;;;;;;24.59;34.00;101716.75;4100067;29;20365;-58
2024/03/22 08:24:29;;;;;;;;;;;;;;;24.63;34.04;101720.06;4100229;29;19922;-58
2024/03/22 08:26:30;;;;;;;;;;;;;;;24.63;34.03;101715.53;4098942;28;19922;-58
2024/03/22 08:28:31;;;;;;;;;;;;;;;24.67;34.24;101705.44;4099804;29;19927;-58
2024/03/22 08:30:32;;;;;;;;;;;;;;;24.68;34.20;101710.69;4099592;29;19922;-58
2024/03/22 08:32:33;;;;;;;;;;;;;;;24.68;34.08;101710.69;4099822;29;19926;-58
2024/03/22 08:34:33;;;;;;;;;;;;;;;24.70;34.07;101713.25;4100008;29;19922;-59
2024/03/22 08:36:34;;;;;;;;;;;;;;;24.71;33.97;101707.72;4099984;29;20253;-58
2024/03/22 08:38:35;;;;;;;;;;;;;;;24.70;33.93;101708.72;4083972;29;20406;-59
2024/03/22 08:40:37;;;;;;;;;;;;;;;24.72;33.98;101711.28;4099651;29;19922;-59
2024/03/22 08:42:38;;;;;;;;;;;;;;;24.72;33.85;101704.06;4099931;29;19928;-59
2024/03/22 08:44:39;;;;;;;;;;;;;;;24.70;34.04;101706.03;4099499;29;19923;-59
2024/03/22 08:46:39;;;;;;;;;;;;;;;24.70;34.04;101702.47;4099697;29;19929;-59
2024/03/22 08:48:40;;;;;;;;;;;;;;;24.70;34.31;101711.41;4099649;29;19969;-58
2024/03/22 08:50:44;;;;;;;;;;;;;;;24.68;34.23;101702.59;4099546;29;19928;-59
2024/03/22 08:52:45;;;;;;;;;;;;;;;24.69;34.04;101693.56;4099632;29;19922;-58
2024/03/22 08:54:46;;;;;;;;;;;;;;;24.52;34.39;101667.13;4099595;29;19930;-59
2024/03/22 08:56:47;;;;;;;;;;;;;;;24.70;34.07;101694.41;4099448;29;19969;-59
2024/03/22 08:58:47;;;;;;;;;;;;;;;24.72;34.35;101696.00;4099256;29;19923;-58
2024/03/22 09:00:48;;;;;;;;;;;;;;;24.73;34.06;101691.47;4099448;29;19923;-58
2024/03/22 09:02:49;;;;;;;;;;;;;;;24.74;34.32;101690.50;4099546;29;20024;-58
2024/03/22 09:04:51;;;;;;;;;;;;;;;24.75;34.00;101694.88;4099621;29;20357;-58
2024/03/22 09:06:52;;;;;;;;;;;;;;;24.74;34.12;101689.63;4099558;29;19968;-58
2024/03/22 09:08:55;;;;;;;;;;;;;;;24.74;34.38;101695.88;4099224;29;19922;-59
2024/03/22 09:10:55;;;;;;;;;;;;;;;24.76;34.05;101695.75;4099300;29;19927;-59
2024/03/22 09:12:56;;;;;;;;;;;;;;;24.75;34.16;101689.50;4099025;29;20385;-58
2024/03/22 09:14:57;;;;;;;;;;;;;;;24.74;34.17;101676.19;4099281;29;19922;-59
2024/03/22 09:16:58;;;;;;;;;;;;;;;24.72;34.13;101674.47;4099096;29;19926;-59
2024/03/22 09:18:59;;;;;;;;;;;;;;;24.71;34.22;101680.81;4099014;29;19922;-59
2024/03/22 09:21:00;;;;;;;;;;;;;;;24.72;34.05;101687.09;4099180;29;19952;-58
2024/03/22 09:23:01;;;;;;;;;;;;;;;24.72;34.11;101690.63;4083272;29;20009;-58
2024/03/22 09:25:02;;;;;;;;;;;;;;;24.72;34.06;101690.63;4098996;29;19932;-58
2024/03/22 09:27:08;;;;;;;;;;;;;;;24.73;34.14;101688.78;4098799;29;19977;-58
2024/03/22 09:29:09;;;;;;;;;;;;;;;24.70;34.37;101684.53;4099148;29;19922;-59
2024/03/22 09:31:10;;;;;;;;;;;;;;;24.71;34.27;101688.06;4099143;29;19922;-58
2024/03/22 09:33:11;;;;;;;;;;;;;;;24.70;34.18;101684.53;4099113;29;20390;-59
2024/03/22 09:35:14;;;;;;;;;;;;;;;24.71;34.23;101682.66;4098954;29;19981;-58
2024/03/22 09:37:15;;;;;;;;;;;;;;;24.71;34.21;101688.91;4098973;29;19922;-58
2024/03/22 09:39:16;;;;;;;;;;;;;;;24.72;34.28;101682.53;4098655;28;19923;-58
2024/03/22 09:41:23;;;;;;;;;;;;;;;24.72;34.40;101685.22;4098759;29;19929;-58
2024/03/22 09:43:27;;;;;;;;;;;;;;;24.72;34.16;101676.31;4082397;29;19962;-58
2024/03/22 09:45:28;;;;;;;;;;;;;;;24.71;34.46;101679.97;4082917;29;19927;-58
2024/03/22 09:47:29;;;;;;;;;;;;;;;24.71;34.36;101683.50;4098752;29;19926;-58
2024/03/22 09:49:30;;;;;;;;;;;;;;;24.68;34.28;101685.59;4099055;29;20465;-58
2024/03/22 09:51:31;;;;;;;;;;;;;;;24.70;34.27;101689.91;4098728;29;19961;-59
2024/03/22 09:53:32;;;;;;;;;;;;;;;24.68;34.18;101690.97;4098758;29;19926;-59
2024/03/22 09:55:33;;;;;;;;;;;;;;;24.66;34.25;101677.66;4098894;29;19929;-61
2024/03/22 09:57:36;;;;;;;;;;;;;;;24.67;34.37;101681.22;4098312;29;19922;-58
2024/03/22 09:59:36;;;;;;;;;;;;;;;24.69;34.37;101681.94;4098442;29;19922;-59
2024/03/22 10:01:39;;;;;;;;;;;;;;;24.67;34.43;101676.69;4098683;29;20311;-59
2024/03/22 10:03:40;;;;;;;;;;;;;;;24.67;34.06;101679.38;4098536;29;19966;-59
2024/03/22 10:05:41;;;;;;;;;;;;;;;24.68;34.17;101674.84;4098355;29;20513;-60
2024/03/22 10:07:42;;;;;;;;;;;;;;;24.67;34.43;101663.22;4098558;29;19926;-59
2024/03/22 10:09:44;;;;;;;;;;;;;;;24.68;34.42;101664.06;4098424;29;19922;-60
2024/03/22 10:11:44;;;;;;;;;;;;;;;24.69;34.22;101661.28;4098138;29;19922;-59
2024/03/22 10:13:46;;;;;;;;;;;;;;;24.69;34.53;101657.72;4098267;29;19977;-59
2024/03/22 10:15:48;;;;;;;;;;;;;;;24.69;34.32;101660.41;4098382;29;19922;-60
2024/03/22 10:17:54;;;;;;;;;;;;;;;24.70;34.56;101659.44;4098826;29;19922;-60
2024/03/22 10:19:57;;;;;;;;;;;;;;;24.70;34.48;101662.13;4098524;29;19922;-58
2024/03/22 10:22:05;;;;;;;;;;;;;;;24.69;34.47;101658.59;4098502;29;19922;-59